Charlottesville, Virginia
Current Conditions -  °F | °C
As of 3:53 PM on Monday 24 Nov 2014 (Local Time) from KCHO Reporting Station
Clear Clear  
Wind Chill: 70°   Ceiling: Unl
Heat Index: 70°   Visibility: 10mi
Dew Point: 51°   Wind: 12mph
Humidity: 51%   Direction: 210°SSW
Pressure: 29.65"   Gusts: 20mph
Location:  38.03°N, 78.48°W
Report Text: KCHO 242053Z 21010G17KT 10SM CLR 21/11 A2965 RMK AO2 SLP036 T02110106 53003
Loading
Personal Weather Stations






























Interactive Weather Map New forecast layout! Learn more

10-Day Weather Forecast

Advertisements
Track Severe Weather on mobile